M I D A S
Marine Information and Data Acquisition System
Tripno 1489 of the Zeeleeuw from 2008-05-21 06:32:22 to 2008-05-21 16:55:35
Back to CruiseResearch ActivitiesStationsMapUnderway DataData graphs

EquipmentUnitsComment
TimeDGPSUTC
LatitudeDGPSDM.mWGS84
LongitudeDGPSDM.mWGS84
HeadingGyrodeg 
SOGDGPSknotsSpeed over ground
COGDGPSdegCourse over ground
DepthEcho soundermeters200 kHz
Missing or incorrect values are displayed as -999
Navigation data collected by the RV Zeeleeuw from 2008-05-21 06:09:43 to 2008-05-21 17:03:14
Time Latitude Longitude Heading SOG COG Depth
2008-05-21 06:10:48 51°13.622 2°56.048 122.3 -999 340 -999
2008-05-21 06:11:49 51°13.621 2°56.048 121.9 -999 222 -999
2008-05-21 06:12:48 51°13.623 2°56.049 121.9 -999 108 -999
2008-05-21 06:13:49 51°13.623 2°56.049 121.8 -999 308 -999
2008-05-21 06:14:49 51°13.622 2°56.047 121.8 -999 270 -999
2008-05-21 06:15:48 51°13.622 2°56.048 121.8 -999 73 5.9
2008-05-21 06:16:49 51°13.623 2°56.048 121.8 -999 307 -999
2008-05-21 06:17:48 51°13.624 2°56.048 121.8 -999 184 -999
2008-05-21 06:18:49 51°13.624 2°56.048 121.7 -999 189 -999
2008-05-21 06:19:48 51°13.623 2°56.047 121.7 -999 313 -999
2008-05-21 06:20:49 51°13.623 2°56.047 121.6 -999 288 -999
2008-05-21 06:21:48 51°13.623 2°56.047 121.4 -999 313 -999
2008-05-21 06:22:49 51°13.623 2°56.048 121.4 -999 200 -999
2008-05-21 06:23:49 51°13.623 2°56.047 121.3 -999 286 -999
2008-05-21 06:24:48 51°13.623 2°56.049 121.2 -999 316 -999
2008-05-21 06:25:49 51°13.624 2°56.049 121.1 -999 354 -999
2008-05-21 06:26:48 51°13.624 2°56.05 121.1 -999 239 -999
2008-05-21 06:27:48 51°13.624 2°56.049 124.2 -999 314 -999
2008-05-21 06:28:48 51°13.623 2°56.048 125.2 -999 91 5.9
2008-05-21 06:29:48 51°13.623 2°56.049 118.4 -999 189 -999
2008-05-21 06:30:49 51°13.622 2°56.047 112.7 0.2 275 -999
2008-05-21 06:31:48 51°13.629 2°56.026 115.9 1.3 299 -999
2008-05-21 06:32:49 51°13.644 2°55.977 112 2.8 294 -999
2008-05-21 06:33:49 51°13.668 2°55.894 109.7 3.8 294 -999
2008-05-21 06:34:49 51°13.683 2°55.8 90.3 3.5 276 -999
2008-05-21 06:35:48 51°13.688 2°55.757 63.5 0.7 26 9.5
2008-05-21 06:36:49 51°13.683 2°55.741 25.9 0.6 337 -999
2008-05-21 06:37:48 51°13.732 2°55.71 332.7 4 334 9.2
2008-05-21 06:38:48 51°13.799 2°55.659 333.4 4.8 335 8.7
2008-05-21 06:39:48 51°13.874 2°55.6 333.3 5.1 334 9.4
2008-05-21 06:40:48 51°13.953 2°55.541 334.1 5.2 335 -999
2008-05-21 06:41:48 51°14.032 2°55.481 334 5.2 336 9.8
2008-05-21 06:42:48 51°14.109 2°55.42 330.3 5.3 327 -999
2008-05-21 06:43:48 51°14.222 2°55.33 330.2 9.2 328 -999
2008-05-21 06:44:48 51°14.337 2°55.128 300.8 11.4 302 9.8
2008-05-21 06:45:48 51°14.425 2°54.842 295.1 12.5 295 9.2
2008-05-21 06:46:48 51°14.469 2°54.511 276.1 13.2 270 9
2008-05-21 06:47:48 51°14.43 2°54.164 255.5 13.3 256 8.1
2008-05-21 06:48:48 51°14.365 2°53.823 250.2 13.6 246 8.4
2008-05-21 06:49:48 51°14.271 2°53.496 242.4 13.6 242 8.3
2008-05-21 06:50:48 51°14.159 2°53.182 238 13.6 239 8.8
2008-05-21 06:51:48 51°14.037 2°52.878 237.5 13.7 240 9.1
2008-05-21 06:52:48 51°13.922 2°52.564 239.2 13.8 242 9.3
2008-05-21 06:53:48 51°13.804 2°52.251 236.6 13.8 235 9.3
2008-05-21 06:54:48 51°13.674 2°51.946 234.7 14 236 9.4
2008-05-21 06:55:48 51°13.543 2°51.641 235.6 13.9 234 9.4
2008-05-21 06:56:48 51°13.443 2°51.454 207.5 4.5 216 9.7
2008-05-21 06:57:48 51°13.431 2°51.412 181.3 1.5 264 -999
2008-05-21 06:58:48 51°13.427 2°51.371 191.7 1.7 258 -999
2008-05-21 06:59:48 51°13.419 2°51.33 199 1.6 251 9.8
2008-05-21 07:00:48 51°13.41 2°51.288 203.3 1.7 249 9.9
2008-05-21 07:01:48 51°13.399 2°51.247 206.9 2 242 9.9
2008-05-21 07:02:48 51°13.362 2°51.155 241.6 7.2 238 9.8
2008-05-21 07:03:48 51°13.261 2°50.891 237.4 13.4 241 9.7
2008-05-21 07:04:48 51°13.15 2°50.576 244.5 13.9 245 9.8
2008-05-21 07:05:48 51°13.045 2°50.251 243 13.9 241 9.9
2008-05-21 07:06:48 51°12.938 2°49.925 243 13.9 242 10.1
2008-05-21 07:07:48 51°12.834 2°49.595 246 13.9 241 10.2
2008-05-21 07:08:48 51°12.732 2°49.266 245.9 13.9 244 10.4
2008-05-21 07:09:48 51°12.629 2°48.937 242.3 13.8 239 10.7
2008-05-21 07:10:48 51°12.522 2°48.611 243.1 13.9 244 10.8
2008-05-21 07:11:48 51°12.408 2°48.292 240.2 13.9 240 10.8
2008-05-21 07:12:48 51°12.3 2°47.969 242.7 13.8 241 11
2008-05-21 07:13:48 51°12.198 2°47.641 244.5 13.8 243 11.1
2008-05-21 07:14:48 51°12.103 2°47.309 249.6 13.7 249 11.2
2008-05-21 07:15:48 51°12.028 2°46.964 252.5 13.8 250 11.3
2008-05-21 07:16:48 51°11.956 2°46.617 253.2 13.8 251 11.4
2008-05-21 07:17:48 51°11.892 2°46.264 255.9 14 255 11.5
2008-05-21 07:18:48 51°11.839 2°45.902 257.3 14.1 254 11.4
2008-05-21 07:19:48 51°11.78 2°45.544 255.4 14 258 11.5
2008-05-21 07:20:48 51°11.721 2°45.185 256.4 14 258 11.4
2008-05-21 07:21:48 51°11.668 2°44.824 256.6 13.9 257 11.2
2008-05-21 07:22:48 51°11.613 2°44.467 256.3 13.8 258 11.1
2008-05-21 07:23:48 51°11.569 2°44.112 258.7 13.5 257 10.9
2008-05-21 07:24:48 51°11.52 2°43.763 256.7 13.4 258 10.8
2008-05-21 07:25:48 51°11.472 2°43.416 257.6 13.3 257 10.7
2008-05-21 07:26:48 51°11.423 2°43.069 257.7 13.3 258 10.2
2008-05-21 07:27:48 51°11.348 2°42.735 243.5 13.5 242 10.1
2008-05-21 07:28:48 51°11.221 2°42.44 227.2 13.7 233 10.5
2008-05-21 07:29:48 51°11.106 2°42.171 237.8 9.3 244 10.9
2008-05-21 07:30:48 51°11.081 2°42.025 264.2 3.2 257 10.9
2008-05-21 07:31:48 51°11.072 2°41.983 242.5 0.9 252 11
2008-05-21 07:32:49 51°11.067 2°41.955 234.3 1.2 249 -999
2008-05-21 07:33:48 51°11.059 2°41.924 231.3 1.4 245 11
2008-05-21 07:34:48 51°11.05 2°41.888 227.7 1.5 244 11
2008-05-21 07:35:48 51°11.026 2°41.816 235 6.8 239 11
2008-05-21 07:36:48 51°10.921 2°41.584 228.5 13 233 11
2008-05-21 07:37:48 51°10.785 2°41.298 228.6 13.8 231 11
2008-05-21 07:38:48 51°10.645 2°41.01 227.4 13.6 231 11.1
2008-05-21 07:39:48 51°10.507 2°40.719 229.5 13.7 233 11
2008-05-21 07:40:48 51°10.359 2°40.443 223.9 13.7 226 11
2008-05-21 07:41:48 51°10.207 2°40.188 221.1 11.6 228 10.5
2008-05-21 07:42:48 51°10.116 2°40.036 209 5 221 10.3
2008-05-21 07:43:48 51°10.091 2°39.983 221.8 1.4 250 10.3
2008-05-21 07:44:48 51°10.081 2°39.946 234.3 1.6 247 10.2
2008-05-21 07:45:48 51°10.069 2°39.906 235.8 1.8 243 10.3
2008-05-21 07:46:48 51°10.055 2°39.861 232.2 1.9 242 10.3
2008-05-21 07:47:48 51°10.038 2°39.769 268.7 5.9 265 10.1
2008-05-21 07:48:48 51°10.026 2°39.486 268.8 13 268 10.8
2008-05-21 07:49:48 51°10.032 2°39.131 274.3 13.5 274 12
2008-05-21 07:50:48 51°10.05 2°38.774 276.5 13.6 275 13.3
2008-05-21 07:51:48 51°10.078 2°38.416 280.1 13.7 278 14.2
2008-05-21 07:52:48 51°10.114 2°38.059 280.3 13.7 278 15.2
2008-05-21 07:53:48 51°10.148 2°37.7 281.5 13.7 279 15.9
2008-05-21 07:54:48 51°10.176 2°37.339 279.1 13.8 279 16.4
2008-05-21 07:55:48 51°10.219 2°36.983 289.2 13.4 287 16.4
2008-05-21 07:56:48 51°10.341 2°36.709 324.2 12.5 321 13.3
2008-05-21 07:57:48 51°10.51 2°36.55 339.2 11.2 340 7.6
2008-05-21 07:58:48 51°10.694 2°36.494 2.1 11.2 359 9.5
2008-05-21 07:59:48 51°10.879 2°36.507 10.1 11.1 6 10.4
2008-05-21 08:00:48 51°11.059 2°36.55 13.4 10.9 9 10.7
2008-05-21 08:01:48 51°11.239 2°36.583 11.4 10.9 7 10.8
2008-05-21 08:02:48 51°11.419 2°36.624 15.4 10.9 11 10.3
2008-05-21 08:03:48 51°11.597 2°36.684 15.9 10.9 11 9.9
2008-05-21 08:04:48 51°11.775 2°36.739 14.7 10.9 9 9.2
2008-05-21 08:05:48 51°11.956 2°36.775 11.6 11 7 8.8
2008-05-21 08:06:48 51°12.132 2°36.845 21.1 10.9 17 8.8
2008-05-21 08:07:48 51°12.304 2°36.929 21 10.8 17 8.3
2008-05-21 08:08:48 51°12.475 2°37.012 21.9 10.7 18 9.2
2008-05-21 08:09:48 51°12.644 2°37.106 24.1 10.8 20 9
2008-05-21 08:10:48 51°12.783 2°37.265 50.7 10.4 55 9.6
2008-05-21 08:11:48 51°12.837 2°37.53 72.7 10.7 78 10.7
2008-05-21 08:12:48 51°12.872 2°37.809 75.1 10.7 77 11.5
2008-05-21 08:13:48 51°12.93 2°38.073 59.5 10.5 57 12.3
2008-05-21 08:14:48 51°13.062 2°38.254 33.9 10.7 28 12.7
2008-05-21 08:15:48 51°13.22 2°38.384 33.4 10.7 32 13.1
2008-05-21 08:16:48 51°13.371 2°38.538 35.3 10.8 33 13.1
2008-05-21 08:17:48 51°13.519 2°38.696 36.6 10.6 31 13.5
2008-05-21 08:18:48 51°13.681 2°38.816 24 10.8 19 13.3
2008-05-21 08:19:48 51°13.861 2°38.863 8.2 11.1 -999 12.4
2008-05-21 08:20:48 51°14.036 2°38.889 23.3 9 25 11
2008-05-21 08:21:48 51°14.112 2°39.037 65.3 6.9 73 11.6
2008-05-21 08:22:48 51°14.135 2°39.22 74.9 7 80 12
2008-05-21 08:23:48 51°14.166 2°39.398 62.7 7.2 60 12.5
2008-05-21 08:24:48 51°14.269 2°39.489 5.6 7.5 345 12.1
2008-05-21 08:25:48 51°14.398 2°39.331 328 11.5 320 11.9
2008-05-21 08:26:48 51°14.545 2°39.116 324.3 12.1 317 16
2008-05-21 08:27:48 51°14.693 2°38.898 327.1 12 318 15.6
2008-05-21 08:28:48 51°14.837 2°38.677 325.7 12 316 16.1
2008-05-21 08:29:48 51°14.979 2°38.45 325.3 12 314 15.7
2008-05-21 08:30:48 51°15.123 2°38.228 327.3 12.1 317 13
2008-05-21 08:31:48 51°15.267 2°38.007 326 12 317 10.2
2008-05-21 08:32:48 51°15.414 2°37.789 325 12 319 10.2
2008-05-21 08:33:48 51°15.573 2°37.593 334 11.9 326 10.2
2008-05-21 08:34:48 51°15.743 2°37.43 337.9 12 328 10.3
2008-05-21 08:35:48 51°15.914 2°37.27 339.6 11.9 333 10.6
2008-05-21 08:36:48 51°16.094 2°37.141 343.3 11.8 336 16.9
2008-05-21 08:37:48 51°16.269 2°36.993 340.7 11.8 331 24.6
2008-05-21 08:38:48 51°16.431 2°36.855 347.6 9.2 335 26.1
2008-05-21 08:39:48 51°16.517 2°36.786 1.3 3.7 329 25.8
2008-05-21 08:40:48 51°16.551 2°36.747 12.7 1.9 316 25.4
2008-05-21 08:41:48 51°16.563 2°36.708 16 1.6 275 25.7
2008-05-21 08:42:48 51°16.56 2°36.663 18.4 1.8 259 25.8
2008-05-21 08:43:48 51°16.551 2°36.616 19.6 2 248 25.8
2008-05-21 08:44:48 51°16.536 2°36.565 18.2 2.1 243 25.8
2008-05-21 08:45:48 51°16.518 2°36.51 14.4 2.4 240 26
2008-05-21 08:46:48 51°16.496 2°36.454 0.4 2.6 234 25.7
2008-05-21 08:47:48 51°16.47 2°36.402 345.7 2.5 230 26.3
2008-05-21 08:48:48 51°16.442 2°36.351 331.8 2.5 227 26.8
2008-05-21 08:49:48 51°16.415 2°36.305 319.3 2.3 226 27.5
2008-05-21 08:50:48 51°16.388 2°36.26 312 2.3 225 27.3
2008-05-21 08:51:48 51°16.362 2°36.217 304.4 2.2 226 27.7
2008-05-21 08:52:48 51°16.337 2°36.175 298.8 2.2 227 27.2
2008-05-21 08:53:48 51°16.311 2°36.132 293.1 2.3 226 27
2008-05-21 08:54:48 51°16.286 2°36.088 288.8 2.4 227 25.8
2008-05-21 08:55:48 51°16.271 2°35.991 284.2 7.3 271 25.9
2008-05-21 08:56:48 51°16.263 2°35.71 270.9 13 262 25.6
2008-05-21 08:57:48 51°16.243 2°35.343 268.9 14.2 264 25.1
2008-05-21 08:58:48 51°16.23 2°34.972 275 13.8 271 24.3
2008-05-21 08:59:48 51°16.236 2°34.607 277.1 13.5 274 16
2008-05-21 09:00:48 51°16.243 2°34.249 273.7 13.2 269 10.9
2008-05-21 09:01:48 51°16.234 2°33.898 271.6 13.1 265 8.4
2008-05-21 09:02:48 51°16.232 2°33.549 272.7 13.2 268 8.4
2008-05-21 09:03:48 51°16.234 2°33.203 271.4 13.3 270 7.8
2008-05-21 09:04:48 51°16.235 2°32.853 271.3 13.3 272 19.7
2008-05-21 09:05:48 51°16.235 2°32.502 270.1 13.2 273 25.3
2008-05-21 09:06:48 51°16.232 2°32.15 271.8 13.2 269 25.7
2008-05-21 09:07:48 51°16.23 2°31.794 271 13.5 271 26.2
2008-05-21 09:08:48 51°16.227 2°31.434 271.2 13.6 269 27.2
2008-05-21 09:09:48 51°16.223 2°31.072 271 13.6 269 27.9
2008-05-21 09:10:48 51°16.215 2°30.709 271.6 13.7 269 27.8
2008-05-21 09:11:48 51°16.21 2°30.345 270.6 13.8 269 28.1
2008-05-21 09:12:48 51°16.205 2°29.981 271.4 13.7 268 27.5
2008-05-21 09:13:48 51°16.194 2°29.616 271.2 13.9 267 27.8
2008-05-21 09:14:48 51°16.185 2°29.249 269.7 14 265 27.9
2008-05-21 09:15:48 51°16.164 2°28.88 269.4 14 264 27.9
2008-05-21 09:16:48 51°16.147 2°28.509 269.7 14.1 266 27.6
2008-05-21 09:17:48 51°16.131 2°28.136 268 14 269 27.2
2008-05-21 09:18:48 51°16.112 2°27.762 267.7 14.1 265 25.7
2008-05-21 09:19:48 51°16.092 2°27.394 269.1 13.3 263 21.6
2008-05-21 09:20:48 51°16.073 2°27.124 271 8 264 17.5
2008-05-21 09:21:48 51°16.058 2°26.943 271.5 6.3 262 13.8
2008-05-21 09:22:48 51°16.043 2°26.786 270.9 6.4 263 12.5
2008-05-21 09:23:48 51°16.041 2°26.59 281.5 7.8 277 11
2008-05-21 09:24:48 51°16.084 2°26.406 302.3 7.5 295 9.8
2008-05-21 09:25:48 51°16.139 2°26.225 306.4 7.6 299 8.9
2008-05-21 09:26:48 51°16.204 2°26.054 310.8 7.5 303 8.7
2008-05-21 09:27:48 51°16.264 2°25.904 315.8 4.9 303 10.3
2008-05-21 09:28:48 51°16.276 2°25.834 291.5 1.3 264 11.1
2008-05-21 09:29:48 51°16.267 2°25.797 280.8 1.6 249 10.1
2008-05-21 09:30:48 51°16.258 2°25.758 278.7 1.6 254 11.5
2008-05-21 09:31:48 51°16.249 2°25.719 287.3 1.5 258 10.5
2008-05-21 09:32:48 51°16.241 2°25.68 294.6 1.5 252 12.1
2008-05-21 09:33:48 51°16.247 2°25.626 322.3 3.1 307 11.4
2008-05-21 09:34:48 51°16.32 2°25.616 18.4 7.5 11 12.2
2008-05-21 09:35:48 51°16.479 2°25.69 25.5 11.2 23 16
2008-05-21 09:36:48 51°16.647 2°25.822 29.2 11.4 27 19.9
2008-05-21 09:37:48 51°16.815 2°25.954 29.4 11.2 26 23.6
2008-05-21 09:38:48 51°16.982 2°26.086 30.8 11.1 27 27.1
2008-05-21 09:39:48 51°17.148 2°26.216 28.5 11.1 29 29.5
2008-05-21 09:40:48 51°17.296 2°26.388 42 11 40 30.4
2008-05-21 09:41:48 51°17.438 2°26.57 40.4 10.9 37 30.4
2008-05-21 09:42:48 51°17.58 2°26.752 42.6 11 40 31.1
2008-05-21 09:43:48 51°17.719 2°26.941 42 11 40 31.2
2008-05-21 09:44:48 51°17.857 2°27.131 42 10.9 39 31.6
2008-05-21 09:45:48 51°17.995 2°27.325 43.2 11.1 40 31.7
2008-05-21 09:46:48 51°18.134 2°27.521 43.9 11.2 43 31.6
2008-05-21 09:47:48 51°18.273 2°27.717 42.7 11.2 40 31.8
2008-05-21 09:48:48 51°18.415 2°27.91 42.5 11.4 40 31.5
2008-05-21 09:49:48 51°18.56 2°28.097 41.8 11.1 38 31.7
2008-05-21 09:50:48 51°18.701 2°28.288 43.1 11 41 31.3
2008-05-21 09:51:48 51°18.842 2°28.478 40.9 11.1 37 31
2008-05-21 09:52:48 51°18.987 2°28.665 40.5 11.2 39 30.7
2008-05-21 09:53:48 51°19.133 2°28.85 41 11.2 40 29.2
2008-05-21 09:54:48 51°19.279 2°29.039 40 11.2 37 27.7
2008-05-21 09:55:48 51°19.426 2°29.224 41.4 11.3 39 25.4
2008-05-21 09:56:48 51°19.572 2°29.408 41.3 11.2 38 22.3
2008-05-21 09:57:48 51°19.72 2°29.588 40.3 11.1 38 18.5
2008-05-21 09:58:48 51°19.861 2°29.764 48.4 9.1 47 14.3
2008-05-21 09:59:48 51°19.942 2°29.883 44.5 4.8 34 13.2
2008-05-21 10:00:48 51°19.989 2°29.944 55.9 3 54 11
2008-05-21 10:01:48 51°20.003 2°29.999 73.3 1.3 82 14.6
2008-05-21 10:02:48 51°19.997 2°30.012 91.7 0.7 185 14.6
2008-05-21 10:03:48 51°19.982 2°30.002 104.4 1.1 210 14.4
2008-05-21 10:04:48 51°19.965 2°29.984 104.4 1.4 221 13.8
2008-05-21 10:05:48 51°19.95 2°29.97 93.5 0.7 161 11.3
2008-05-21 10:06:48 51°19.957 2°30.016 63 3.5 62 14.5
2008-05-21 10:07:48 51°20.008 2°30.164 63 8.9 63 13.1
2008-05-21 10:08:48 51°20.087 2°30.408 66.2 10.6 64 14.1
2008-05-21 10:09:48 51°20.168 2°30.659 64.7 10.7 65 13.4
2008-05-21 10:10:48 51°20.237 2°30.923 67.6 10.7 68 15.1
2008-05-21 10:11:48 51°20.304 2°31.184 67.8 10.5 68 18.6
2008-05-21 10:12:48 51°20.37 2°31.443 68 10.6 68 21.8
2008-05-21 10:13:48 51°20.436 2°31.702 68 10.5 68 25.8
2008-05-21 10:14:48 51°20.502 2°31.963 68.8 10.6 70 28.9
2008-05-21 10:15:48 51°20.565 2°32.226 67.9 10.6 66 31
2008-05-21 10:16:48 51°20.629 2°32.49 68.7 10.6 69 30.8
2008-05-21 10:17:48 51°20.693 2°32.754 67.9 10.7 70 30.6
2008-05-21 10:18:48 51°20.757 2°33.018 67.7 10.7 69 30.3
2008-05-21 10:19:48 51°20.821 2°33.282 67.4 10.7 68 31.3
2008-05-21 10:20:48 51°20.892 2°33.542 66 10.7 66 30.8
2008-05-21 10:21:48 51°20.963 2°33.802 65.3 10.7 66 31.5
2008-05-21 10:22:48 51°21.033 2°34.065 66.2 10.7 66 30.8
2008-05-21 10:23:48 51°21.105 2°34.327 68.1 10.7 67 31.3
2008-05-21 10:24:48 51°21.178 2°34.587 66 10.8 66 31.2
2008-05-21 10:25:48 51°21.254 2°34.848 65.1 10.8 66 33.1
2008-05-21 10:26:48 51°21.327 2°35.11 66.3 10.8 66 35.2
2008-05-21 10:27:48 51°21.4 2°35.376 65.8 10.7 64 32.6
2008-05-21 10:28:49 51°21.474 2°35.642 66 10.8 65 30.6
2008-05-21 10:29:48 51°21.546 2°35.901 67.7 10.9 68 32.6
2008-05-21 10:30:48 51°21.614 2°36.168 66.7 10.9 66 32
2008-05-21 10:31:48 51°21.683 2°36.436 66.3 10.9 69 31.9
2008-05-21 10:32:49 51°21.752 2°36.708 66.3 10.8 68 30.7
2008-05-21 10:33:48 51°21.819 2°36.967 66 10.7 66 32.6
2008-05-21 10:34:48 51°21.888 2°37.236 65.6 11 67 31.3
2008-05-21 10:35:48 51°21.955 2°37.505 66.7 10.9 68 31.3
2008-05-21 10:36:48 51°22.023 2°37.773 66 10.9 67 31.1
2008-05-21 10:37:49 51°22.09 2°38.052 66.4 11.1 69 30.2
2008-05-21 10:38:48 51°22.155 2°38.322 65.7 11.1 68 31
2008-05-21 10:39:48 51°22.222 2°38.597 67.5 11.1 69 30.5
2008-05-21 10:40:48 51°22.285 2°38.873 65.8 11 71 29.5
2008-05-21 10:41:48 51°22.352 2°39.149 66.1 11.2 69 30.5
2008-05-21 10:42:48 51°22.416 2°39.428 65.2 11.2 70 29
2008-05-21 10:43:48 51°22.482 2°39.707 66.7 11.3 70 29.3
2008-05-21 10:44:48 51°22.548 2°39.988 66.4 11.1 70 29.8
2008-05-21 10:45:48 51°22.613 2°40.268 67.4 11.3 71 30.1
2008-05-21 10:46:48 51°22.677 2°40.551 65.6 11.4 70 29.7
2008-05-21 10:47:48 51°22.743 2°40.838 66.4 11.5 69 29.2
2008-05-21 10:48:49 51°22.813 2°41.129 66.1 11.5 71 30.6
2008-05-21 10:49:48 51°22.876 2°41.416 67 11.5 69 29
2008-05-21 10:50:48 51°22.941 2°41.706 66.3 11.5 69 28.8
2008-05-21 10:51:48 51°23.009 2°41.997 65.4 11.7 69 28.4
2008-05-21 10:52:48 51°23.078 2°42.286 66 11.7 70 27.6
2008-05-21 10:53:49 51°23.147 2°42.585 65.8 11.6 69 27.1
2008-05-21 10:54:48 51°23.215 2°42.872 65.5 11.8 70 26.7
2008-05-21 10:55:48 51°23.284 2°43.165 65.3 11.8 71 27.3
2008-05-21 10:56:48 51°23.354 2°43.458 66.7 11.6 70 27.3
2008-05-21 10:57:48 51°23.422 2°43.75 66.1 11.7 70 27.5
2008-05-21 10:58:48 51°23.49 2°44.043 64.9 11.7 69 26.8
2008-05-21 10:59:48 51°23.561 2°44.332 65.3 11.6 69 28.4
2008-05-21 11:00:49 51°23.632 2°44.627 65.9 11.7 69 27.3
2008-05-21 11:01:48 51°23.697 2°44.912 67.8 11.5 69 27.7
2008-05-21 11:02:49 51°23.767 2°45.202 67 11.5 67 27.9
2008-05-21 11:03:48 51°23.839 2°45.481 65.7 11.6 69 28
2008-05-21 11:04:49 51°23.916 2°45.769 62.3 11.5 63 28.1
2008-05-21 11:05:48 51°24.006 2°46.036 58.9 11.6 62 29.1
2008-05-21 11:06:48 51°24.098 2°46.31 59 11.6 59 31.4
2008-05-21 11:07:48 51°24.198 2°46.576 57.9 11.6 60 30
2008-05-21 11:08:48 51°24.297 2°46.844 57.2 11.7 57 28.8
2008-05-21 11:09:48 51°24.402 2°47.105 56.8 11.7 57 31.7
2008-05-21 11:10:48 51°24.506 2°47.369 55.1 11.6 56 31.5
2008-05-21 11:11:48 51°24.613 2°47.629 55.4 11.8 58 30.4
2008-05-21 11:12:48 51°24.721 2°47.893 55.4 11.9 58 29.7
2008-05-21 11:13:49 51°24.831 2°48.161 55.5 11.2 58 28.9
2008-05-21 11:14:48 51°24.892 2°48.315 46.9 4.5 49 27.6
2008-05-21 11:15:48 51°24.927 2°48.361 26.9 1.4 31 28.5
2008-05-21 11:16:49 51°24.933 2°48.365 20.2 0.2 307 28.5
2008-05-21 11:17:48 51°24.93 2°48.356 8.6 0.6 232 28.5
2008-05-21 11:18:49 51°24.923 2°48.343 343.7 0.7 222 28
2008-05-21 11:19:48 51°24.913 2°48.33 320.7 0.8 216 27.7
2008-05-21 11:20:49 51°24.902 2°48.318 305.7 0.7 208 27.4
2008-05-21 11:21:48 51°24.941 2°48.262 343.4 5.8 350 28.9
2008-05-21 11:22:48 51°25.082 2°48.292 9.3 11.1 7 30.7
2008-05-21 11:23:48 51°25.273 2°48.327 7.3 11.7 7 30.9
2008-05-21 11:24:49 51°25.469 2°48.37 9.6 11.7 8 29.4
2008-05-21 11:25:49 51°25.661 2°48.414 10.3 11.6 11 25
2008-05-21 11:26:48 51°25.841 2°48.464 9.7 9.5 9 25
2008-05-21 11:27:49 51°25.935 2°48.502 21.7 3.7 21 25.1
2008-05-21 11:28:48 51°25.962 2°48.523 17 0.4 22 25.1
2008-05-21 11:29:49 51°25.964 2°48.519 356.3 0.4 250 25.1
2008-05-21 11:30:48 51°25.958 2°48.507 333.8 0.8 230 25
2008-05-21 11:31:48 51°25.949 2°48.496 313.5 0.7 218 25.2
2008-05-21 11:32:48 51°25.939 2°48.485 304.6 0.5 205 25.1
2008-05-21 11:33:48 51°25.928 2°48.476 306.1 0.7 205 24.9
2008-05-21 11:34:49 51°25.929 2°48.456 325 1.9 322 25
2008-05-21 11:35:48 51°25.979 2°48.51 64.7 5.3 79 25.2
2008-05-21 11:36:49 51°25.996 2°48.755 75.4 11.7 75 25.3
2008-05-21 11:37:48 51°26.063 2°49.058 68.1 12.3 70 25.1
2008-05-21 11:38:49 51°26.128 2°49.379 72.5 12.5 74 24.9
2008-05-21 11:39:48 51°26.184 2°49.693 72.5 12.5 74 24.7
2008-05-21 11:40:49 51°26.24 2°50.021 75.2 12.6 77 24.8
2008-05-21 11:41:49 51°26.287 2°50.346 77.1 12.6 78 25.1
2008-05-21 11:42:48 51°26.335 2°50.668 75.4 12.7 77 25.2
2008-05-21 11:43:49 51°26.382 2°51.002 76.6 12.6 78 25.3
2008-05-21 11:44:48 51°26.429 2°51.326 76.2 12.7 77 28.5
2008-05-21 11:45:49 51°26.476 2°51.661 76.4 12.6 78 27.1
2008-05-21 11:46:48 51°26.521 2°51.984 76.3 12.6 77 27.2
2008-05-21 11:47:48 51°26.569 2°52.314 76 12.6 77 28.4
2008-05-21 11:48:49 51°26.616 2°52.649 75.5 12.7 76 29.8
2008-05-21 11:49:49 51°26.666 2°52.978 75.9 12.8 76 31.3
2008-05-21 11:50:49 51°26.716 2°53.308 75.1 12.7 76 32.2
2008-05-21 11:51:48 51°26.765 2°53.631 76.2 12.7 77 31.2
2008-05-21 11:52:49 51°26.813 2°53.968 77.3 12.7 78 28.9
2008-05-21 11:53:48 51°26.861 2°54.295 75.4 12.9 78 25.6
2008-05-21 11:54:49 51°26.91 2°54.636 76.1 12.8 78 28.7
2008-05-21 11:55:49 51°26.957 2°54.967 76.3 12.8 76 28.7
2008-05-21 11:56:49 51°27.004 2°55.303 77.1 13 79 29.2
2008-05-21 11:57:49 51°27.049 2°55.638 75.4 12.8 78 31.3
2008-05-21 11:58:48 51°27.096 2°55.965 77.1 12.9 77 30.3
2008-05-21 11:59:49 51°27.144 2°56.305 76.4 12.8 77 28
2008-05-21 12:00:49 51°27.192 2°56.639 76.3 12.7 77 23.8
2008-05-21 12:01:49 51°27.238 2°56.971 76.6 12.9 78 25.8
2008-05-21 12:02:48 51°27.282 2°57.296 75.7 12.8 76 26.7
2008-05-21 12:03:48 51°27.328 2°57.628 76.7 12.8 78 25.3
2008-05-21 12:04:49 51°27.374 2°57.965 76.4 12.8 78 22.4
2008-05-21 12:05:49 51°27.414 2°58.299 77.1 12.8 78 20.1
2008-05-21 12:06:49 51°27.459 2°58.632 75.2 12.8 77 19.3
2008-05-21 12:07:48 51°27.5 2°58.96 76.5 12.7 78 20
2008-05-21 12:08:49 51°27.543 2°59.299 76.1 12.7 78 21.5
2008-05-21 12:09:48 51°27.591 2°59.624 74.6 12.7 75 20.1
2008-05-21 12:10:49 51°27.651 2°59.954 71.2 12.7 73 21.9
2008-05-21 12:11:48 51°27.713 3°0.272 71 12.8 73 22.6
2008-05-21 12:12:49 51°27.776 3°0.604 70.6 12.8 74 24.3
2008-05-21 12:13:49 51°27.839 3°0.93 72 13 75 24.8
2008-05-21 12:14:49 51°27.895 3°1.263 72.6 12.9 74 25.4
2008-05-21 12:15:49 51°27.954 3°1.594 72 13 73 25.4
2008-05-21 12:16:49 51°28.005 3°1.929 75.8 13 77 25.6
2008-05-21 12:17:49 51°28.057 3°2.265 74.6 13 76 25.4
2008-05-21 12:18:48 51°28.106 3°2.597 74.4 13.1 76 25.2
2008-05-21 12:19:49 51°28.157 3°2.94 74.2 13 76 24.9
2008-05-21 12:20:49 51°28.208 3°3.266 73.8 10.8 76 24.3
2008-05-21 12:21:49 51°28.236 3°3.439 69.7 4.7 78 24.1
2008-05-21 12:22:49 51°28.241 3°3.519 88.6 1.8 104 23.9
2008-05-21 12:23:49 51°28.236 3°3.535 126.4 0.4 115 -999
2008-05-21 12:24:49 51°28.233 3°3.547 148.2 0.6 112 23.9
2008-05-21 12:25:49 51°28.228 3°3.563 155.2 0.8 127 23.8
2008-05-21 12:26:49 51°28.22 3°3.581 156.5 0.9 131 23.7
2008-05-21 12:27:48 51°28.193 3°3.624 140 4 131 23.4
2008-05-21 12:28:49 51°28.135 3°3.743 132.4 6.5 127 22.6
2008-05-21 12:29:48 51°28.064 3°3.887 132.8 7.2 129 21.5
2008-05-21 12:30:49 51°27.994 3°4.053 124.3 7.8 123 20.6
2008-05-21 12:31:49 51°27.91 3°4.284 122.6 11 122 19
2008-05-21 12:32:49 51°27.803 3°4.572 123.2 13.1 120 17.1
2008-05-21 12:33:49 51°27.689 3°4.872 120 13.1 126 15.1
2008-05-21 12:34:48 51°27.577 3°5.17 122.5 13.3 119 16.8
2008-05-21 12:35:49 51°27.461 3°5.473 122.9 13.2 124 17
2008-05-21 12:36:49 51°27.346 3°5.773 123.3 13.3 121 16
2008-05-21 12:37:49 51°27.231 3°6.072 123.2 13 123 15.5
2008-05-21 12:38:49 51°27.118 3°6.372 122.5 13.1 123 15.2
2008-05-21 12:39:49 51°27.008 3°6.675 122.8 13.1 120 14.6
2008-05-21 12:40:49 51°26.896 3°6.977 123.3 13.2 121 14.2
2008-05-21 12:41:49 51°26.785 3°7.281 121.7 13.1 120 13.6
2008-05-21 12:42:49 51°26.673 3°7.585 122.4 13.1 123 13
2008-05-21 12:43:48 51°26.564 3°7.884 123.1 13.2 119 12.4
2008-05-21 12:44:49 51°26.479 3°8.141 116.1 7.5 113 12.5
2008-05-21 12:45:49 51°26.462 3°8.273 93.2 3.8 99 12.9
2008-05-21 12:46:49 51°26.451 3°8.331 116.8 1.1 108 12.9
2008-05-21 12:47:49 51°26.447 3°8.35 137.8 0.8 108 12.9
2008-05-21 12:48:49 51°26.441 3°8.373 151.7 1 114 13
2008-05-21 12:49:49 51°26.429 3°8.402 150.7 2.2 132 13
2008-05-21 12:50:49 51°26.38 3°8.538 115.9 8.7 114 12.8
2008-05-21 12:51:49 51°26.296 3°8.82 119.9 12.9 116 12.2
2008-05-21 12:52:49 51°26.191 3°9.122 123.1 13 120 11.7
2008-05-21 12:53:49 51°26.082 3°9.422 122.1 13 118 10.9
2008-05-21 12:54:49 51°25.973 3°9.725 121.8 13.1 120 10.5
2008-05-21 12:55:49 51°25.864 3°10.025 121.3 12.9 122 10.1
2008-05-21 12:56:49 51°25.754 3°10.325 123.8 13.1 120 10
2008-05-21 12:57:49 51°25.642 3°10.623 124 13.3 121 9.8
2008-05-21 12:58:49 51°25.53 3°10.919 124.3 12.9 128 10.4
2008-05-21 12:59:49 51°25.365 3°11.132 153 12.8 153 11.5
2008-05-21 13:00:49 51°25.179 3°11.274 157.7 12.6 155 12
2008-05-21 13:01:48 51°24.998 3°11.413 155.8 12.4 151 12.9
2008-05-21 13:02:49 51°24.814 3°11.587 153.3 12.8 149 14.1
2008-05-21 13:03:49 51°24.633 3°11.769 153.8 12.8 149 15.9
2008-05-21 13:04:49 51°24.448 3°11.947 157.5 13.2 153 19.1
2008-05-21 13:05:49 51°24.257 3°12.107 160.7 13 153 20.6
2008-05-21 13:06:49 51°24.065 3°12.267 159.9 13 151 18
2008-05-21 13:07:49 51°23.873 3°12.419 166 12.8 155 14.8
2008-05-21 13:08:49 51°23.682 3°12.551 167.3 12.2 158 14
2008-05-21 13:09:49 51°23.491 3°12.674 168.5 12.4 159 13.5
2008-05-21 13:10:49 51°23.298 3°12.793 166.6 12.7 158 13.5
2008-05-21 13:11:49 51°23.104 3°12.913 166.8 12.3 160 13.9
2008-05-21 13:12:49 51°22.954 3°13.045 151.6 7.3 134 14
2008-05-21 13:13:49 51°22.892 3°13.152 168.4 4.5 140 13.9
2008-05-21 13:14:49 51°22.833 3°13.227 163.6 4.9 141 13.9
2008-05-21 13:15:49 51°22.765 3°13.316 161.8 5.6 145 13.9
2008-05-21 13:16:49 51°22.693 3°13.333 205.3 4.5 181 14.1
2008-05-21 13:17:49 51°22.624 3°13.305 223.5 3.4 199 14.4
2008-05-21 13:18:49 51°22.594 3°13.29 245.9 0.8 181 14.4
2008-05-21 13:19:49 51°22.584 3°13.299 261.8 0.8 130 14.3
2008-05-21 13:20:49 51°22.578 3°13.328 276.5 1.4 101 14.4
2008-05-21 13:21:49 51°22.575 3°13.367 286.6 1.5 100 14.4
2008-05-21 13:22:49 51°22.574 3°13.389 278.5 0.5 247 14.3
2008-05-21 13:23:49 51°22.537 3°13.347 231.8 5.1 222 14.3
2008-05-21 13:24:49 51°22.492 3°13.169 261.4 8.3 266 14.5
2008-05-21 13:25:49 51°22.491 3°12.938 267.4 8.8 268 15.3
2008-05-21 13:26:49 51°22.483 3°12.701 265.1 8.9 267 16
2008-05-21 13:27:49 51°22.473 3°12.465 264.1 9 266 16.6
2008-05-21 13:28:49 51°22.459 3°12.234 263.5 7.9 265 17
2008-05-21 13:29:49 51°22.448 3°12.048 264.7 6.7 267 17.4
2008-05-21 13:30:49 51°22.44 3°11.86 264.8 7.4 266 17.8
2008-05-21 13:31:49 51°22.43 3°11.66 264.8 7.6 266 17.9
2008-05-21 13:32:49 51°22.44 3°11.499 283 3.8 295 17.8
2008-05-21 13:33:49 51°22.466 3°11.443 291.3 2.1 311 18
2008-05-21 13:34:49 51°22.493 3°11.402 298.6 2.1 325 17.9
2008-05-21 13:35:49 51°22.507 3°11.403 293 0.6 37 18
2008-05-21 13:36:49 51°22.514 3°11.421 303.4 1 73 18
2008-05-21 13:37:49 51°22.517 3°11.449 304.6 1.2 89 18
2008-05-21 13:38:49 51°22.517 3°11.48 304 1.2 98 17.8
2008-05-21 13:39:49 51°22.514 3°11.517 303.6 1.6 99 17.8
2008-05-21 13:40:49 51°22.52 3°11.532 302.7 2.5 322 17.7
2008-05-21 13:41:49 51°22.593 3°11.424 302.6 8.3 307 17.6
2008-05-21 13:42:49 51°22.668 3°11.193 290.6 10.6 295 16.9
2008-05-21 13:43:49 51°22.749 3°10.938 292.5 10.7 297 16.4
2008-05-21 13:44:49 51°22.831 3°10.676 292.5 11.1 296 16
2008-05-21 13:45:49 51°22.897 3°10.407 285 10.7 289 16.5
2008-05-21 13:46:49 51°22.952 3°10.131 284.3 11.1 288 16.3
2008-05-21 13:47:49 51°22.997 3°9.844 279.6 11.2 281 17.2
2008-05-21 13:48:49 51°23.033 3°9.549 278.8 11.4 283 21.4
2008-05-21 13:49:49 51°23.06 3°9.248 276.8 11.5 276 21.1
2008-05-21 13:50:49 51°23.089 3°8.952 275.7 11.1 280 15.3
2008-05-21 13:51:49 51°23.121 3°8.661 277.2 11.2 282 14.6
2008-05-21 13:52:49 51°23.153 3°8.371 276.8 11 280 14.6
2008-05-21 13:53:49 51°23.185 3°8.083 277.2 11 281 14.2
2008-05-21 13:54:49 51°23.218 3°7.792 278.5 11.2 280 14.4
2008-05-21 13:55:49 51°23.248 3°7.498 275.6 11 277 14.4
2008-05-21 13:56:49 51°23.272 3°7.205 274.5 11.1 277 14.6
2008-05-21 13:57:49 51°23.294 3°6.915 274.6 11 276 14.6
2008-05-21 13:58:49 51°23.314 3°6.619 274.4 11.3 276 14.4
2008-05-21 13:59:49 51°23.337 3°6.323 277.9 11.2 281 14.7
2008-05-21 14:00:49 51°23.377 3°6.028 279.5 11.3 282 14.4
2008-05-21 14:01:49 51°23.416 3°5.736 279.6 11.2 283 15.1
2008-05-21 14:02:49 51°23.457 3°5.446 279.6 11 283 14.5
2008-05-21 14:03:49 51°23.499 3°5.158 280.7 11.1 283 14.8
2008-05-21 14:04:49 51°23.535 3°4.869 277.9 11 281 14.7
2008-05-21 14:05:49 51°23.566 3°4.579 277.7 11.1 278 14.7
2008-05-21 14:06:49 51°23.599 3°4.287 277.9 11 279 14.8
2008-05-21 14:07:49 51°23.629 3°4.024 278.6 7.5 282 14.8
2008-05-21 14:08:49 51°23.65 3°3.87 278.5 5.2 281 15.3
2008-05-21 14:09:49 51°23.668 3°3.759 281.6 3.4 287 15.9
2008-05-21 14:10:49 51°23.685 3°3.704 291 1.9 302 15.8
2008-05-21 14:11:49 51°23.701 3°3.656 283.1 2.2 295 16.1
2008-05-21 14:12:49 51°23.699 3°3.588 262.2 3.5 264 15.9
2008-05-21 14:13:49 51°23.681 3°3.488 252.2 3.9 252 15.1
2008-05-21 14:14:49 51°23.666 3°3.393 256.6 3.6 258 16.2
2008-05-21 14:15:49 51°23.645 3°3.297 244.5 3.9 240 16.3
2008-05-21 14:16:49 51°23.604 3°3.21 235.8 4.3 233 16.3
2008-05-21 14:17:49 51°23.561 3°3.122 234.9 4.1 233 16.7
2008-05-21 14:18:49 51°23.52 3°3.035 237 4.1 238 17.3
2008-05-21 14:19:49 51°23.483 3°2.946 239.1 3.9 235 16.6
2008-05-21 14:20:49 51°23.448 3°2.857 239.4 4 240 14.5
2008-05-21 14:21:49 51°23.412 3°2.767 238.8 3.9 238 14.4
2008-05-21 14:22:49 51°23.377 3°2.678 239.4 4 236 15.5
2008-05-21 14:23:49 51°23.342 3°2.587 240.2 4 240 15.5
2008-05-21 14:24:49 51°23.312 3°2.491 243.2 4 244 15.6
2008-05-21 14:25:49 51°23.277 3°2.399 237.8 4.1 239 13.5
2008-05-21 14:26:49 51°23.248 3°2.305 245.4 4 247 14.4
2008-05-21 14:27:49 51°23.219 3°2.209 241.4 4 238 14.7
2008-05-21 14:28:49 51°23.185 3°2.115 239.1 4 241 13.2
2008-05-21 14:29:49 51°23.152 3°2.022 240.1 4.1 241 14.6
2008-05-21 14:30:49 51°23.118 3°1.928 239.9 4.1 239 14.9
2008-05-21 14:31:49 51°23.086 3°1.833 240.7 4 241 14.9
2008-05-21 14:32:49 51°23.055 3°1.737 240 4.1 245 13.6
2008-05-21 14:33:49 51°23.027 3°1.638 249.1 4.1 257 14.2
2008-05-21 14:34:49 51°23.03 3°1.532 275.2 4 284 14.4
2008-05-21 14:35:49 51°23.056 3°1.434 288.1 3.7 289 14.6
2008-05-21 14:36:49 51°23.03 3°1.374 202 3.5 178 14.5
2008-05-21 14:37:49 51°22.989 3°1.446 116.4 4.2 104 14.2
2008-05-21 14:38:49 51°22.999 3°1.56 79.7 4.4 77 14.5
2008-05-21 14:39:49 51°23.01 3°1.673 83.9 4.3 82 14.1
2008-05-21 14:40:49 51°23.019 3°1.784 84.7 4.3 82 14.2
2008-05-21 14:41:49 51°23.031 3°1.894 83 4.1 78 14.8
2008-05-21 14:42:49 51°23.049 3°1.998 68.5 3.9 66 14.2
2008-05-21 14:43:49 51°23.083 3°2.09 56.1 4.2 58 13.6
2008-05-21 14:44:49 51°23.121 3°2.196 64.5 4.7 64 13.5
2008-05-21 14:45:49 51°23.156 3°2.29 56.2 3.8 55 13.7
2008-05-21 14:46:49 51°23.19 3°2.37 57.4 3.6 57 13.2
2008-05-21 14:47:49 51°23.22 3°2.452 60.3 3.5 62 15.1
2008-05-21 14:48:49 51°23.252 3°2.54 57 4 57 15.5
2008-05-21 14:49:49 51°23.292 3°2.631 52.9 4.3 53 15.5
2008-05-21 14:50:49 51°23.334 3°2.727 56.5 4.4 55 15
2008-05-21 14:51:49 51°23.376 3°2.826 55.3 4.6 55 10.9
2008-05-21 14:52:49 51°23.419 3°2.925 56.4 4.5 57 14.5
2008-05-21 14:53:49 51°23.459 3°3.024 58.3 4.1 60 16.2
2008-05-21 14:54:49 51°23.495 3°3.111 56.2 3.7 58 16.5
2008-05-21 14:55:49 51°23.535 3°3.176 25 3.6 26 16.5
2008-05-21 14:56:49 51°23.61 3°3.18 350.5 4.6 354 16
2008-05-21 14:57:49 51°23.681 3°3.163 345.3 3.8 348 16.2
2008-05-21 14:58:49 51°23.712 3°3.098 264.2 3.1 258 16.2
2008-05-21 14:59:49 51°23.665 3°3.074 179.2 3.4 169 16.1
2008-05-21 15:00:49 51°23.607 3°3.088 189.5 3.5 185 16.1
2008-05-21 15:01:49 51°23.552 3°3.047 213.6 4.1 210 16.2
2008-05-21 15:02:49 51°23.492 3°2.993 215.7 4.2 219 15.1
2008-05-21 15:03:49 51°23.457 3°2.902 245.7 4.1 249 14.4
2008-05-21 15:04:49 51°23.429 3°2.8 240.6 4.4 244 11.5
2008-05-21 15:05:49 51°23.392 3°2.702 236.5 4.4 241 14.9
2008-05-21 15:06:49 51°23.36 3°2.6 241.3 4.2 247 15.2
2008-05-21 15:07:49 51°23.329 3°2.507 238.7 3.9 242 15.3
2008-05-21 15:08:49 51°23.297 3°2.417 237.6 3.9 239 14
2008-05-21 15:09:49 51°23.265 3°2.325 237.9 4 238 13.6
2008-05-21 15:10:49 51°23.232 3°2.235 238.3 3.9 243 14.7
2008-05-21 15:11:49 51°23.199 3°2.143 237.4 3.9 240 12.2
2008-05-21 15:12:49 51°23.166 3°2.054 238.1 3.9 238 13.8
2008-05-21 15:13:49 51°23.135 3°1.962 238.7 3.9 242 14.4
2008-05-21 15:14:49 51°23.103 3°1.868 239 4.1 243 14.4
2008-05-21 15:15:49 51°23.071 3°1.773 238.4 4.1 243 13.9
2008-05-21 15:16:49 51°23.038 3°1.676 238.3 4.2 242 13.8
2008-05-21 15:17:49 51°23.004 3°1.579 238.5 4.2 243 13.9
2008-05-21 15:18:49 51°22.972 3°1.484 239 4.1 242 13.6
2008-05-21 15:19:49 51°22.935 3°1.374 238 6.2 240 13.8
2008-05-21 15:20:49 51°22.867 3°1.192 236.5 9 238 13.8
2008-05-21 15:21:49 51°22.768 3°0.965 230.7 11.7 236 13.8
2008-05-21 15:22:49 51°22.659 3°0.709 235 11.8 236 13.8
2008-05-21 15:23:49 51°22.561 3°0.446 235.3 11.6 238 13.7
2008-05-21 15:24:49 51°22.46 3°0.181 236 11.6 244 13.9
2008-05-21 15:25:49 51°22.357 2°59.92 235.9 11.6 237 14.1
2008-05-21 15:26:49 51°22.259 2°59.65 235.8 11.6 242 14.1
2008-05-21 15:27:49 51°22.158 2°59.386 235.7 11.8 242 14.2
2008-05-21 15:28:49 51°22.074 2°59.107 246.3 11.8 251 14.5
2008-05-21 15:29:49 51°22.016 2°58.803 250.3 11.8 250 14.9
2008-05-21 15:30:49 51°21.959 2°58.507 248.4 11.5 252 15.1
2008-05-21 15:31:49 51°21.9 2°58.214 248.6 11.6 251 15.4
2008-05-21 15:32:49 51°21.838 2°57.926 247.8 11.7 248 15.7
2008-05-21 15:33:49 51°21.752 2°57.651 236.9 11.8 242 15.8
2008-05-21 15:34:49 51°21.653 2°57.386 234.3 11.6 237 16
2008-05-21 15:35:49 51°21.543 2°57.139 231.5 11.4 224 16.1
2008-05-21 15:36:49 51°21.424 2°56.9 231.8 11.5 230 16
2008-05-21 15:37:49 51°21.307 2°56.654 230 11.6 234 15.9
2008-05-21 15:38:49 51°21.19 2°56.415 229.4 11.4 233 15.7
2008-05-21 15:39:49 51°21.072 2°56.173 231 11.6 232 15.8
2008-05-21 15:40:49 51°20.956 2°55.929 229.8 11.8 233 15.8
2008-05-21 15:41:49 51°20.839 2°55.683 229.9 11.6 231 15.7
2008-05-21 15:42:49 51°20.722 2°55.44 231.6 11.5 232 15.9
2008-05-21 15:43:49 51°20.605 2°55.196 228.5 11.7 234 15.8
2008-05-21 15:44:49 51°20.487 2°54.953 231.1 11.6 228 15.8
2008-05-21 15:45:49 51°20.369 2°54.703 228.8 11.6 235 15.8
2008-05-21 15:46:49 51°20.248 2°54.459 231 11.7 228 15.7
2008-05-21 15:47:49 51°20.129 2°54.209 229.8 12.1 231 15.5
2008-05-21 15:48:49 51°20.008 2°53.952 230.4 12 230 15.6
2008-05-21 15:49:49 51°19.889 2°53.703 232.2 11.9 228 15.5
2008-05-21 15:50:49 51°19.77 2°53.452 230.6 11.9 231 15.5
2008-05-21 15:51:49 51°19.647 2°53.206 228.7 12 233 15.5
2008-05-21 15:52:49 51°19.529 2°52.951 233.3 11.8 239 15.4
2008-05-21 15:53:49 51°19.526 2°52.636 269.6 12.3 271 16.1
2008-05-21 15:54:49 51°19.53 2°52.311 264.2 12.3 271 16.4
2008-05-21 15:55:49 51°19.458 2°52.028 228.2 12.1 232 16.7
2008-05-21 15:56:49 51°19.322 2°51.797 216.8 12 219 16.5
2008-05-21 15:57:49 51°19.158 2°51.618 211 11.9 212 16.3
2008-05-21 15:58:49 51°18.991 2°51.442 211.3 12.1 213 15.8
2008-05-21 15:59:49 51°18.826 2°51.266 212.2 11.6 213 15.6
2008-05-21 16:00:49 51°18.668 2°51.09 212.9 11 215 15.2
2008-05-21 16:01:49 51°18.556 2°50.979 202.6 4.4 198 15.1
2008-05-21 16:02:49 51°18.525 2°50.979 149.5 1 158 14.9
2008-05-21 16:03:49 51°18.513 2°50.984 137.1 0.5 180 14.9
2008-05-21 16:04:49 51°18.507 2°50.984 129 0.5 201 14.9
2008-05-21 16:05:49 51°18.498 2°50.987 127.7 1.1 137 14.7
2008-05-21 16:06:49 51°18.444 2°51.084 134.2 8.4 136 14.6
2008-05-21 16:07:49 51°18.284 2°51.223 152 11.8 154 13.7
2008-05-21 16:08:49 51°18.113 2°51.377 148.8 11.8 145 12.5
2008-05-21 16:09:49 51°17.944 2°51.544 149.8 12.2 144 11.4
2008-05-21 16:10:49 51°17.775 2°51.705 144.3 11.7 151 11
2008-05-21 16:11:49 51°17.617 2°51.889 143 11.5 145 11
2008-05-21 16:12:49 51°17.46 2°52.074 143.8 11.7 143 11.3
2008-05-21 16:13:49 51°17.302 2°52.263 145.8 12 141 11.2
2008-05-21 16:14:49 51°17.15 2°52.46 138.7 11.6 132 10.9
2008-05-21 16:15:49 51°17.017 2°52.692 133.5 12.1 129 10.8
2008-05-21 16:16:49 51°16.896 2°52.938 127.6 12 124 9.6
2008-05-21 16:17:49 51°16.777 2°53.187 129.7 12.2 127 11.8
2008-05-21 16:18:49 51°16.646 2°53.431 130.9 12 126 12.1
2008-05-21 16:19:49 51°16.518 2°53.676 129.9 12 126 12.4
2008-05-21 16:20:49 51°16.396 2°53.928 126.8 12 125 12.1
2008-05-21 16:21:49 51°16.302 2°54.126 124.7 6.6 124 12
2008-05-21 16:22:49 51°16.265 2°54.217 110.5 2.7 118 11.9
2008-05-21 16:23:49 51°16.25 2°54.245 107.3 0.8 152 12.1
2008-05-21 16:24:49 51°16.239 2°54.249 108.4 0.6 169 11.9
2008-05-21 16:25:49 51°16.227 2°54.246 112.4 0.8 185 11.9
2008-05-21 16:26:49 51°16.23 2°54.308 60.5 3.8 59 12
2008-05-21 16:27:49 51°16.253 2°54.361 52.2 1.9 57 11.8
2008-05-21 16:28:49 51°16.266 2°54.402 63.3 1.5 72 11.8
2008-05-21 16:29:49 51°16.266 2°54.418 62.5 0.3 145 11.8
2008-05-21 16:30:49 51°16.257 2°54.418 76.1 0.7 196 11.8
2008-05-21 16:31:49 51°16.245 2°54.405 109.1 0.8 223 11.9
2008-05-21 16:32:49 51°16.236 2°54.387 131 0.9 231 11.9
2008-05-21 16:33:49 51°16.225 2°54.37 146.5 0.9 228 11.7
2008-05-21 16:34:49 51°16.215 2°54.352 151.3 0.9 217 11.8
2008-05-21 16:35:49 51°16.167 2°54.359 161.2 4.9 165 12
2008-05-21 16:36:49 51°16.051 2°54.389 177.7 8.3 180 11.7
2008-05-21 16:37:49 51°15.901 2°54.407 169.5 9.2 174 11.2
2008-05-21 16:38:49 51°15.761 2°54.434 168 7 173 10.9
2008-05-21 16:39:49 51°15.688 2°54.462 150.3 3.2 164 10.5
2008-05-21 16:40:49 51°15.638 2°54.474 170.6 3.3 185 10.6
2008-05-21 16:41:49 51°15.571 2°54.438 194.8 4.7 201 10.3
2008-05-21 16:42:49 51°15.491 2°54.391 195 5.3 203 10.1
2008-05-21 16:43:49 51°15.407 2°54.339 195.3 5.5 201 10
2008-05-21 16:44:49 51°15.317 2°54.345 151.6 5.4 157 9.7
2008-05-21 16:45:49 51°15.247 2°54.396 147.9 3.8 155 9.5
2008-05-21 16:46:49 51°15.197 2°54.427 154.7 3 170 9.3
2008-05-21 16:47:49 51°15.141 2°54.429 171 3.6 177 9.2
2008-05-21 16:48:49 51°15.079 2°54.447 157.3 3.9 165 9
2008-05-21 16:49:49 51°14.993 2°54.456 169.7 6.9 168 8.9
2008-05-21 16:50:49 51°14.864 2°54.517 158.8 8 161 9.8
2008-05-21 16:51:49 51°14.769 2°54.571 150.8 5.1 158 10
2008-05-21 16:52:49 51°14.692 2°54.625 146.9 5.8 152 10.1
2008-05-21 16:53:49 51°14.58 2°54.747 138.2 9.1 144 10.1
2008-05-21 16:54:49 51°14.457 2°54.89 130.5 8.8 142 10.9
2008-05-21 16:55:49 51°14.362 2°55.064 127.7 8.8 130 11.2
2008-05-21 16:56:49 51°14.281 2°55.221 128.7 5.9 132 10.4
2008-05-21 16:57:49 51°14.232 2°55.304 133.1 3.2 139 -999
2008-05-21 16:58:49 51°14.201 2°55.347 136.3 2.1 141 -999
2008-05-21 16:59:49 51°14.178 2°55.376 135.9 1.8 140 -999
2008-05-21 17:00:49 51°14.148 2°55.415 138 3 140 10.5
2008-05-21 17:01:49 51°14.094 2°55.473 147.1 4 149 11.2
2008-05-21 17:02:49 51°14.043 2°55.515 153.6 3.3 156 10.3